Terminal Aerodrome Forecast
Issued by NWS

Home | Current Version | Previous Version | Graphics & Text | Print | Product List | Glossary On
Versions: 1 2 3 4 5 6 7 8 9 10 11 12 13 14 15
000
FTUS45 KGGW 161400 AAA
TAFGDV
TAF AMD
KGDV 161417Z 1614/1712 04011KT P6SM SCT016
     FM161500 03011KT P6SM BKN020
     FM162000 05012KT P6SM OVC050
     FM170400 09009KT P6SM BKN100
      AMD LTD TO CLD VIS AND WIND=

USA.gov is the U.S. government's official web portal to all federal, state and local government web resources and services.